Time;durP1;ratioP1;P1;durP2;ratioP2;P2;SDS_P1;SDS_P2;PMS_P1;PMS_P2;Temp;Humidity;BMP_temperature;BMP_pressure;BME280_temperature;BME280_humidity;BME280_pressure;Samples;Min_cycle;Max_cycle;Signal;HPM_P1;HPM_P2
2023/10/11 00:00:44;;;;;;;49.22;17.75;;;17.30;99.90;;;;;;5040149;28;20032;-73
2023/10/11 00:03:17;;;;;;;50.08;18.98;;;17.30;99.90;;;;;;5052302;28;20025;-74
2023/10/11 00:05:47;;;;;;;46.35;18.63;;;17.30;99.90;;;;;;5052492;28;20086;-74
2023/10/11 00:08:26;;;;;;;46.75;18.52;;;17.30;99.90;;;;;;5052109;28;20104;-74
2023/10/11 00:10:59;;;;;;;50.08;18.35;;;17.30;99.90;;;;;;5052167;28;20366;-74
2023/10/11 00:13:33;;;;;;;49.10;18.67;;;17.30;99.90;;;;;;5052204;28;20087;-73
2023/10/11 00:16:07;;;;;;;48.28;18.13;;;17.30;99.90;;;;;;5052282;28;20041;-74
2023/10/11 00:18:34;;;;;;;49.28;18.83;;;17.40;99.90;;;;;;5052356;28;20025;-74
2023/10/11 00:21:09;;;;;;;54.60;20.35;;;17.30;99.90;;;;;;5051985;28;20088;-74
2023/10/11 00:23:36;;;;;;;53.17;19.98;;;17.40;99.90;;;;;;5052149;28;20117;-73
2023/10/11 00:26:02;;;;;;;53.55;20.02;;;17.30;99.90;;;;;;5052299;28;20021;-73
2023/10/11 00:28:31;;;;;;;60.03;19.83;;;17.40;99.90;;;;;;5051888;28;20036;-73
2023/10/11 00:31:00;;;;;;;55.70;20.52;;;17.40;99.90;;;;;;5051193;28;20529;-74
2023/10/11 00:33:26;;;;;;;43.03;19.45;;;17.40;99.90;;;;;;5051021;28;20032;-74
2023/10/11 00:35:52;;;;;;;58.13;20.77;;;17.30;99.90;;;;;;5037997;28;20029;-74
2023/10/11 00:38:20;;;;;;;56.58;21.23;;;17.40;99.90;;;;;;5051149;28;20036;-74
2023/10/11 00:41:01;;;;;;;58.22;20.48;;;17.30;99.90;;;;;;5050216;28;20029;-74
2023/10/11 00:43:41;;;;;;;49.95;19.52;;;17.40;99.90;;;;;;5046942;28;20433;-74
2023/10/11 00:46:08;;;;;;;53.33;19.65;;;17.30;99.90;;;;;;5051109;28;20111;-74
2023/10/11 00:48:35;;;;;;;61.17;20.95;;;17.30;99.90;;;;;;5051295;28;20104;-74
2023/10/11 00:51:00;;;;;;;52.10;20.25;;;17.30;99.90;;;;;;5066423;28;20057;-74
2023/10/11 00:53:26;;;;;;;52.95;19.23;;;17.30;99.90;;;;;;5051334;28;20525;-73
2023/10/11 00:55:55;;;;;;;54.42;20.90;;;17.30;99.90;;;;;;5051838;28;20025;-74
2023/10/11 00:58:22;;;;;;;56.28;20.75;;;17.30;99.90;;;;;;5051543;28;20032;-74
2023/10/11 01:00:49;;;;;;;57.60;21.10;;;17.30;99.90;;;;;;5051343;28;20339;-73
2023/10/11 01:03:14;;;;;;;56.42;21.67;;;17.30;99.90;;;;;;5051548;28;20414;-73
2023/10/11 01:05:44;;;;;;;51.72;21.90;;;17.30;99.90;;;;;;5051186;28;20047;-73
2023/10/11 01:08:11;;;;;;;50.15;20.60;;;17.30;99.90;;;;;;5051600;28;20021;-73
2023/10/11 01:10:38;;;;;;;55.75;21.67;;;17.30;99.90;;;;;;5051045;28;20021;-73
2023/10/11 01:13:04;;;;;;;55.97;21.80;;;17.30;99.90;;;;;;5051225;28;20017;-73
2023/10/11 01:15:29;;;;;;;52.03;21.92;;;17.30;99.90;;;;;;5050924;28;20037;-74
2023/10/11 01:17:56;;;;;;;56.22;22.48;;;17.30;99.90;;;;;;5051159;28;20041;-74
2023/10/11 01:20:21;;;;;;;54.42;21.42;;;17.20;99.90;;;;;;5051213;28;20028;-73
2023/10/11 01:22:48;;;;;;;53.67;23.33;;;17.20;99.90;;;;;;5066558;28;20017;-74
2023/10/11 01:25:23;;;;;;;57.83;21.63;;;17.20;99.90;;;;;;5051028;28;20025;-74
2023/10/11 01:27:48;;;;;;;54.58;22.75;;;17.20;99.90;;;;;;5051494;28;20717;-74
2023/10/11 01:30:15;;;;;;;56.15;21.90;;;17.20;99.90;;;;;;5050780;28;20036;-74
2023/10/11 01:32:41;;;;;;;66.53;23.35;;;17.20;99.90;;;;;;5050991;28;20017;-74
2023/10/11 01:35:12;;;;;;;56.67;22.70;;;17.20;99.90;;;;;;5050850;28;20041;-73
2023/10/11 01:37:42;;;;;;;56.00;23.45;;;17.20;99.90;;;;;;5051068;28;20047;-74
2023/10/11 01:40:31;;;;;;;55.33;22.23;;;17.20;99.90;;;;;;5050752;28;20528;-73
2023/10/11 01:42:57;;;;;;;56.55;23.65;;;17.20;99.90;;;;;;5051095;28;20408;-74
2023/10/11 01:45:23;;;;;;;60.53;22.90;;;17.10;99.90;;;;;;5050876;28;20074;-73
2023/10/11 01:47:56;;;;;;;52.75;22.20;;;17.10;99.90;;;;;;5051180;28;20060;-73
2023/10/11 01:50:24;;;;;;;52.58;22.45;;;17.10;99.90;;;;;;5052632;28;20017;-73
2023/10/11 01:52:50;;;;;;;51.83;22.73;;;17.10;99.90;;;;;;5054415;28;20041;-74
2023/10/11 01:55:17;;;;;;;48.53;22.48;;;17.10;99.90;;;;;;5054606;28;20021;-73
2023/10/11 01:57:48;;;;;;;60.38;22.40;;;17.10;99.90;;;;;;5054872;28;20017;-73
2023/10/11 02:00:23;;;;;;;55.20;22.13;;;17.10;99.90;;;;;;5054660;28;20024;-74
2023/10/11 02:02:55;;;;;;;51.00;21.05;;;17.00;99.90;;;;;;5054958;28;20041;-73
2023/10/11 02:05:21;;;;;;;55.33;21.30;;;17.00;99.90;;;;;;5054239;28;20465;-73
2023/10/11 02:07:47;;;;;;;53.67;21.15;;;17.00;99.90;;;;;;5054411;28;20018;-74
2023/10/11 02:10:13;;;;;;;50.47;21.40;;;17.00;99.90;;;;;;5054504;28;20028;-74
2023/10/11 02:12:45;;;;;;;58.85;22.08;;;17.00;99.90;;;;;;5054486;28;20751;-74
2023/10/11 02:15:21;;;;;;;49.72;21.42;;;17.00;99.90;;;;;;5054306;28;20024;-74
2023/10/11 02:17:48;;;;;;;49.15;21.60;;;17.00;99.90;;;;;;5054337;28;20021;-74
2023/10/11 02:20:20;;;;;;;52.63;21.63;;;17.00;99.90;;;;;;5054784;28;20017;-74
2023/10/11 02:22:50;;;;;;;46.55;21.25;;;16.90;99.90;;;;;;5055038;28;20036;-74
2023/10/11 02:25:17;;;;;;;50.70;22.30;;;16.90;99.90;;;;;;5055327;28;20017;-74
2023/10/11 02:27:43;;;;;;;60.00;23.45;;;16.90;99.90;;;;;;5041679;28;20017;-74
2023/10/11 02:30:13;;;;;;;55.47;22.42;;;16.90;99.90;;;;;;5054276;28;20036;-73
2023/10/11 02:32:43;;;;;;;50.50;22.30;;;16.90;99.90;;;;;;5053820;28;20045;-73
2023/10/11 02:35:13;;;;;;;52.47;23.13;;;16.80;99.90;;;;;;5054204;28;20033;-73
2023/10/11 02:37:45;;;;;;;50.00;22.85;;;16.80;99.90;;;;;;5054052;28;20021;-74
2023/10/11 02:40:22;;;;;;;49.85;23.77;;;16.80;99.90;;;;;;5054021;28;20025;-74
2023/10/11 02:42:49;;;;;;;58.80;24.27;;;16.80;99.90;;;;;;5054272;28;20060;-73
2023/10/11 02:45:19;;;;;;;55.03;24.33;;;16.80;99.90;;;;;;5053787;28;20020;-74
2023/10/11 02:47:59;;;;;;;55.00;24.23;;;16.80;99.90;;;;;;5054136;28;20025;-74
2023/10/11 02:50:36;;;;;;;52.95;24.40;;;16.70;99.90;;;;;;5052348;28;20017;-73
2023/10/11 02:53:21;;;;;;;58.35;24.88;;;16.70;99.90;;;;;;5054095;28;20044;-73
2023/10/11 02:55:57;;;;;;;54.30;24.90;;;16.70;99.90;;;;;;5053917;28;20017;-73
2023/10/11 02:58:29;;;;;;;52.35;24.88;;;16.60;99.90;;;;;;5053927;28;20465;-73
2023/10/11 03:01:10;;;;;;;57.10;25.00;;;16.60;99.90;;;;;;5042267;28;20061;-74
2023/10/11 03:03:38;;;;;;;58.58;25.83;;;16.50;99.90;;;;;;5053542;28;20374;-73
2023/10/11 03:06:07;;;;;;;50.75;24.10;;;16.50;99.90;;;;;;5053496;28;20020;-74
2023/10/11 03:08:33;;;;;;;60.15;25.73;;;16.50;99.90;;;;;;5053362;28;20016;-74
2023/10/11 03:10:59;;;;;;;56.90;24.77;;;16.50;99.90;;;;;;5053396;28;20028;-73
2023/10/11 03:13:27;;;;;;;55.00;24.00;;;16.50;99.90;;;;;;5051908;28;20492;-74
2023/10/11 03:15:56;;;;;;;55.47;24.10;;;16.50;99.90;;;;;;5053402;28;20029;-73
2023/10/11 03:18:24;;;;;;;53.50;24.73;;;16.50;99.90;;;;;;5053349;28;20370;-73
2023/10/11 03:21:09;;;;;;;52.67;23.65;;;16.50;99.90;;;;;;5053152;28;20029;-74
2023/10/11 03:23:45;;;;;;;57.30;25.05;;;16.50;99.90;;;;;;5044458;28;20043;-74
2023/10/11 03:26:23;;;;;;;53.40;23.33;;;16.50;99.90;;;;;;5053213;28;20035;-74
2023/10/11 03:28:57;;;;;;;60.83;25.25;;;16.50;99.90;;;;;;5053553;28;20021;-74
2023/10/11 03:31:29;;;;;;;52.85;24.48;;;16.40;99.90;;;;;;5053144;28;20021;-74
2023/10/11 03:33:59;;;;;;;57.80;24.98;;;16.40;99.90;;;;;;5053231;28;20037;-74
2023/10/11 03:36:35;;;;;;;55.35;24.67;;;16.40;99.90;;;;;;5051721;28;20025;-74
2023/10/11 03:39:09;;;;;;;63.35;26.30;;;16.40;99.90;;;;;;5053080;28;20032;-74
2023/10/11 03:41:44;;;;;;;58.60;25.08;;;16.40;99.90;;;;;;5053009;28;20017;-74
2023/10/11 03:44:11;;;;;;;55.28;25.20;;;16.40;99.90;;;;;;5052864;28;20103;-74
2023/10/11 03:46:38;;;;;;;61.28;26.23;;;16.40;99.90;;;;;;5052486;28;20027;-74
2023/10/11 03:51:48;;;;;;;63.42;26.08;;;16.40;99.90;;;;;;5052901;28;20057;-74
2023/10/11 03:54:23;;;;;;;62.95;26.52;;;16.40;99.90;;;;;;5052494;28;20067;-74
2023/10/11 03:56:55;;;;;;;;;;;16.40;99.90;;;;;;5053033;28;20025;-74
2023/10/11 03:59:25;;;;;;;59.08;25.85;;;16.40;99.90;;;;;;5052512;28;19904;-74
2023/10/11 04:01:58;;;;;;;65.70;25.85;;;16.40;99.90;;;;;;5052382;28;20032;-74
2023/10/11 04:04:24;;;;;;;66.20;27.48;;;16.40;99.90;;;;;;5052238;28;20021;-74
2023/10/11 04:06:51;;;;;;;58.80;26.27;;;16.40;99.90;;;;;;5052050;28;20049;-74
2023/10/11 04:12:23;;;;;;;65.70;26.98;;;16.50;99.90;;;;;;5025997;28;20041;-74
2023/10/11 04:14:49;;;;;;;65.88;27.65;;;16.50;99.90;;;;;;5052135;28;20032;-74
2023/10/11 04:22:49;;;;;;;62.28;26.40;;;16.60;99.90;;;;;;5049849;28;20140;-74
2023/10/11 04:25:17;;;;;;;62.63;26.98;;;16.60;99.90;;;;;;5050735;28;20068;-74
2023/10/11 04:30:23;;;;;;;65.15;26.83;;;16.70;99.90;;;;;;5052265;28;20097;-74
2023/10/11 04:32:54;;;;;;;65.85;25.85;;;16.70;99.90;;;;;;5051706;28;20078;-74
2023/10/11 04:35:22;;;;;;;59.83;25.92;;;16.70;99.90;;;;;;5052166;28;20029;-74
2023/10/11 04:37:54;;;;;;;62.63;25.30;;;16.80;99.90;;;;;;5051020;28;20029;-74
2023/10/11 04:45:44;;;;;;;54.63;24.92;;;16.80;99.90;;;;;;5049448;28;20081;-74
2023/10/11 04:48:29;;;;;;;60.42;24.58;;;16.80;99.90;;;;;;5050913;28;20029;-74
2023/10/11 04:51:07;;;;;;;59.15;24.35;;;16.80;99.90;;;;;;5049982;28;20057;-74
2023/10/11 04:53:54;;;;;;;64.53;23.40;;;16.80;99.90;;;;;;5050812;28;20029;-74
2023/10/11 04:59:27;;;;;;;;;;;16.90;99.90;;;;;;5051433;28;20048;-74
2023/10/11 05:05:05;;;;;;;67.82;24.63;;;16.90;99.90;;;;;;5051097;28;20025;-74
2023/10/11 05:07:08;;;;;;;69.40;25.17;;;16.90;99.90;;;;;;5050300;28;20041;-74
2023/10/11 05:09:39;;;;;;;63.22;25.38;;;16.90;99.90;;;;;;5051103;28;20021;-74
2023/10/11 05:12:12;;;;;;;58.65;24.83;;;16.90;99.90;;;;;;5047248;28;20032;-74
2023/10/11 05:19:55;;;;;;;63.75;25.65;;;16.90;99.90;;;;;;5051168;28;20108;-74
2023/10/11 05:23:05;;;;;;;69.72;24.90;;;17.00;99.90;;;;;;5051531;28;20424;-74
2023/10/11 05:27:57;;;;;;;64.75;26.13;;;17.00;99.90;;;;;;5054472;28;20111;-74
2023/10/11 05:52:14;;;;;;;;;;;16.90;99.90;;;;;;5055036;28;20052;-75
2023/10/11 05:54:40;;;;;;;53.65;22.83;;;16.90;99.90;;;;;;5054436;28;19916;-75
2023/10/11 05:57:06;;;;;;;60.00;22.73;;;16.90;99.90;;;;;;5054814;28;20033;-75
2023/10/11 05:59:35;;;;;;;61.22;23.42;;;16.90;99.90;;;;;;5053779;28;20102;-75
2023/10/11 06:02:02;;;;;;;54.35;22.23;;;16.90;99.90;;;;;;5053547;28;20029;-75
2023/10/11 06:04:30;;;;;;;55.95;21.85;;;16.90;99.90;;;;;;5054060;28;20033;-74
2023/10/11 06:06:59;;;;;;;61.40;22.33;;;17.00;99.90;;;;;;5054459;28;20033;-75
2023/10/11 06:09:27;;;;;;;60.30;23.27;;;17.00;99.90;;;;;;5052587;28;20099;-74
2023/10/11 06:11:53;;;;;;;56.83;23.27;;;17.00;99.90;;;;;;5053841;28;20052;-75
2023/10/11 06:14:20;;;;;;;64.32;23.15;;;17.00;99.90;;;;;;5053837;28;20029;-74
2023/10/11 06:16:57;;;;;;;60.88;22.70;;;17.00;99.90;;;;;;5054131;28;20056;-73
2023/10/11 06:19:26;;;;;;;55.50;22.50;;;17.00;99.90;;;;;;5054243;28;20065;-76
2023/10/11 06:21:56;;;;;;;58.40;22.80;;;17.00;99.90;;;;;;5053090;28;20031;-75
2023/10/11 06:24:26;;;;;;;64.50;21.80;;;17.00;99.90;;;;;;5051964;28;20017;-76
2023/10/11 06:26:52;;;;;;;73.47;22.73;;;17.10;99.90;;;;;;5054290;28;20029;-76
2023/10/11 06:29:28;;;;;;;54.20;22.52;;;17.10;99.90;;;;;;5053791;28;20035;-74
2023/10/11 06:31:54;;;;;;;61.85;21.40;;;17.10;99.90;;;;;;5054472;28;20434;-74
2023/10/11 06:34:32;;;;;;;62.85;22.00;;;17.10;99.90;;;;;;5053365;28;20021;-75
2023/10/11 06:36:57;;;;;;;55.95;21.27;;;17.10;99.90;;;;;;5053253;28;20036;-74
2023/10/11 06:44:59;;;;;;;56.10;21.15;;;17.10;99.90;;;;;;5053881;28;20437;-74
2023/10/11 06:47:28;;;;;;;59.55;20.52;;;17.10;99.90;;;;;;5053610;28;20056;-74
2023/10/11 06:49:55;;;;;;;59.92;21.15;;;17.10;99.90;;;;;;5049342;28;20091;-74
2023/10/11 06:52:25;;;;;;;60.65;21.65;;;17.20;99.90;;;;;;5052970;28;20559;-74
2023/10/11 06:57:39;;;;;;;53.58;20.15;;;17.20;99.90;;;;;;5054507;28;20044;-74
2023/10/11 07:05:47;;;;;;;60.80;20.92;;;17.30;99.90;;;;;;5045980;28;20025;-75
2023/10/11 07:08:17;;;;;;;62.15;19.98;;;17.20;99.90;;;;;;5051503;28;20366;-75
2023/10/11 07:11:01;;;;;;;54.78;20.50;;;17.30;99.90;;;;;;5048176;28;20118;-76
2023/10/11 07:13:43;;;;;;;61.45;20.70;;;17.40;99.90;;;;;;5052111;28;20159;-75
2023/10/11 07:16:10;;;;;;;65.40;20.25;;;17.40;99.90;;;;;;5051993;28;20033;-75
2023/10/11 07:18:42;;;;;;;60.45;19.90;;;17.40;99.90;;;;;;5051422;28;20025;-73
2023/10/11 07:21:08;;;;;;;58.53;20.02;;;17.50;99.90;;;;;;5049323;28;20400;-75
2023/10/11 07:23:45;;;;;;;64.05;19.92;;;17.50;99.90;;;;;;5049588;28;20025;-75
2023/10/11 07:26:47;;;;;;;57.67;18.67;;;17.50;99.90;;;;;;5049742;28;20074;-75
2023/10/11 07:29:12;;;;;;;50.22;19.00;;;17.50;99.90;;;;;;5051080;28;20033;-75
2023/10/11 07:31:48;;;;;;;58.60;19.77;;;17.60;99.90;;;;;;5050590;28;20014;-74
2023/10/11 07:34:17;;;;;;;58.95;19.10;;;17.60;99.90;;;;;;5043869;28;20089;-75
2023/10/11 07:36:43;;;;;;;57.28;19.77;;;17.60;99.90;;;;;;5050033;28;20028;-74
2023/10/11 07:39:14;;;;;;;65.82;19.88;;;17.60;99.90;;;;;;5049418;28;20029;-74
2023/10/11 07:41:43;;;;;;;56.90;18.27;;;17.60;99.90;;;;;;5033562;28;20033;-74
2023/10/11 07:44:10;;;;;;;53.42;18.30;;;17.70;99.90;;;;;;5049655;28;20042;-74
2023/10/11 07:46:39;;;;;;;64.55;19.55;;;17.70;99.90;;;;;;5048803;28;20264;-74
2023/10/11 07:49:09;;;;;;;56.05;18.55;;;17.70;99.90;;;;;;5050994;28;20485;-74
2023/10/11 07:51:40;;;;;;;52.13;18.95;;;17.80;99.90;;;;;;5050879;28;20041;-74
2023/10/11 07:54:07;;;;;;;57.45;19.80;;;17.80;99.90;;;;;;5051001;28;20032;-74
2023/10/11 07:56:36;;;;;;;67.00;19.75;;;17.80;99.90;;;;;;5051012;28;20074;-74
2023/10/11 07:59:07;;;;;;;50.28;17.02;;;17.80;99.90;;;;;;5050149;28;20021;-74
2023/10/11 08:01:42;;;;;;;37.45;13.98;;;17.80;99.90;;;;;;5050786;28;20500;-75
2023/10/11 08:04:29;;;;;;;37.42;12.25;;;17.80;99.90;;;;;;5051117;28;20385;-74
2023/10/11 08:06:59;;;;;;;25.63;9.63;;;17.80;99.90;;;;;;5049285;28;20124;-74
2023/10/11 08:09:34;;;;;;;24.40;7.95;;;17.80;99.90;;;;;;5050885;28;20033;-74
2023/10/11 08:12:00;;;;;;;20.77;7.80;;;17.90;99.90;;;;;;5044823;28;20025;-74
2023/10/11 08:14:29;;;;;;;26.15;8.10;;;17.90;99.90;;;;;;5066046;28;20056;-74
2023/10/11 08:16:56;;;;;;;26.90;8.52;;;17.90;99.90;;;;;;5050723;28;20037;-74
2023/10/11 08:19:22;;;;;;;24.45;8.30;;;17.90;99.90;;;;;;5050489;28;20013;-74
2023/10/11 08:21:54;;;;;;;21.65;8.32;;;18.00;99.90;;;;;;5050594;28;20480;-74
2023/10/11 08:24:25;;;;;;;22.70;8.18;;;18.00;99.90;;;;;;5050311;28;20033;-74
2023/10/11 08:27:05;;;;;;;26.98;7.80;;;18.00;99.90;;;;;;5050105;28;20484;-74
2023/10/11 08:29:31;;;;;;;20.67;7.32;;;18.00;99.90;;;;;;5050622;28;20028;-75
2023/10/11 08:31:58;;;;;;;22.80;6.80;;;18.00;99.90;;;;;;5050257;28;20021;-74
2023/10/11 08:34:25;;;;;;;20.02;7.75;;;18.10;99.90;;;;;;5049857;28;20021;-74
2023/10/11 08:36:54;;;;;;;25.15;8.52;;;18.10;99.90;;;;;;5050622;28;20028;-74
2023/10/11 08:39:26;;;;;;;20.15;8.60;;;18.10;99.90;;;;;;5050139;28;20381;-74
2023/10/11 08:41:58;;;;;;;22.58;8.60;;;18.10;99.90;;;;;;5042596;28;20040;-74
2023/10/11 08:44:27;;;;;;;21.95;8.90;;;18.20;99.90;;;;;;5050328;28;20382;-74
2023/10/11 08:46:56;;;;;;;25.13;8.90;;;18.20;99.90;;;;;;5049990;28;20017;-74
2023/10/11 08:49:22;;;;;;;21.55;7.60;;;18.20;99.90;;;;;;5049959;28;20385;-74
2023/10/11 08:51:56;;;;;;;19.65;7.28;;;18.20;99.90;;;;;;5064511;28;20063;-74
2023/10/11 08:54:26;;;;;;;21.50;7.93;;;18.20;99.90;;;;;;5049689;28;20023;-75
2023/10/11 08:56:57;;;;;;;21.38;7.70;;;18.20;99.90;;;;;;5049385;28;20473;-74
2023/10/11 08:59:27;;;;;;;29.60;7.90;;;18.20;99.90;;;;;;5039179;28;20071;-74
2023/10/11 09:01:53;;;;;;;21.90;7.53;;;18.20;99.90;;;;;;5049821;28;20021;-75
2023/10/11 09:04:26;;;;;;;14.38;7.25;;;18.20;99.90;;;;;;5049514;28;20031;-74
2023/10/11 09:06:57;;;;;;;15.15;7.22;;;18.30;99.90;;;;;;5047681;28;20035;-74
2023/10/11 09:09:41;;;;;;;22.48;9.02;;;18.30;99.90;;;;;;5037357;28;20033;-74
2023/10/11 09:12:24;;;;;;;17.52;7.13;;;18.30;99.90;;;;;;5049852;28;20028;-74
2023/10/11 09:15:04;;;;;;;33.58;8.50;;;18.30;99.90;;;;;;5049387;28;20485;-74
2023/10/11 09:17:38;;;;;;;23.05;8.27;;;18.30;99.90;;;;;;5046865;28;20024;-74
2023/10/11 09:20:23;;;;;;;23.27;8.43;;;18.30;99.90;;;;;;5049824;28;20023;-74
2023/10/11 09:22:52;;;;;;;20.23;7.50;;;18.30;99.90;;;;;;5049931;28;20033;-74
2023/10/11 09:25:22;;;;;;;19.40;7.90;;;18.40;99.90;;;;;;5049766;28;20116;-74
2023/10/11 09:27:48;;;;;;;21.42;7.75;;;18.40;99.90;;;;;;5049440;28;20021;-74
2023/10/11 09:30:21;;;;;;;26.10;7.57;;;18.40;99.90;;;;;;5049539;28;20017;-74
2023/10/11 09:32:58;;;;;;;21.55;8.00;;;18.40;99.90;;;;;;5049615;28;20043;-74
2023/10/11 09:35:27;;;;;;;21.35;8.32;;;18.50;99.90;;;;;;5049505;28;20369;-75
2023/10/11 09:37:59;;;;;;;26.20;8.50;;;18.50;99.90;;;;;;5064553;28;20123;-74
2023/10/11 09:40:34;;;;;;;20.25;7.57;;;18.50;99.90;;;;;;5048281;28;20402;-75
2023/10/11 09:43:00;;;;;;;21.40;7.63;;;18.50;99.90;;;;;;5043671;28;20021;-75
2023/10/11 09:45:41;;;;;;;21.60;8.30;;;18.60;99.90;;;;;;5049490;28;20099;-74
2023/10/11 09:48:09;;;;;;;25.23;7.53;;;18.60;99.90;;;;;;5049207;28;20036;-75
2023/10/11 09:50:40;;;;;;;22.80;7.60;;;18.70;99.90;;;;;;5049047;28;20128;-75
2023/10/11 09:53:13;;;;;;;25.67;7.90;;;18.80;99.90;;;;;;5049735;28;20316;-75
2023/10/11 09:56:03;;;;;;;22.48;8.38;;;18.90;99.90;;;;;;5049875;28;20389;-75
2023/10/11 09:58:41;;;;;;;20.35;7.65;;;19.00;99.90;;;;;;5049460;28;20124;-75
2023/10/11 10:01:17;;;;;;;23.98;7.70;;;19.10;99.90;;;;;;5049735;28;20021;-75
2023/10/11 10:03:53;;;;;;;25.17;7.97;;;19.10;99.90;;;;;;5044756;28;20026;-75
2023/10/11 10:06:18;;;;;;;;;;;19.20;99.90;;;;;;5049861;28;20075;-75
2023/10/11 10:09:22;;;;;;;22.23;7.07;;;19.30;99.90;;;;;;5049347;28;19913;-75
2023/10/11 10:12:06;;;;;;;19.67;6.85;;;19.30;99.90;;;;;;5052607;28;20036;-75
2023/10/11 10:14:36;;;;;;;20.27;6.20;;;19.40;99.90;;;;;;5053139;28;20477;-75
2023/10/11 10:17:11;;;;;;;16.10;6.20;;;19.50;99.90;;;;;;5052886;28;20062;-75
2023/10/11 10:19:43;;;;;;;16.73;6.10;;;19.60;99.90;;;;;;5046189;28;20028;-75
2023/10/11 10:22:16;;;;;;;18.98;6.35;;;19.60;99.90;;;;;;5046732;28;20025;-74
2023/10/11 10:24:44;;;;;;;16.73;6.40;;;19.70;99.90;;;;;;5052990;28;20028;-74
2023/10/11 10:27:33;;;;;;;16.42;5.57;;;19.80;99.90;;;;;;5050472;28;20053;-75
2023/10/11 10:30:00;;;;;;;16.80;5.63;;;19.80;99.90;;;;;;5052773;28;20104;-75
2023/10/11 10:32:26;;;;;;;15.70;5.25;;;19.90;99.90;;;;;;5052406;28;20070;-75
2023/10/11 10:35:20;;;;;;;15.45;4.97;;;20.00;99.90;;;;;;5052382;28;20066;-75
2023/10/11 10:37:56;;;;;;;15.50;5.30;;;20.10;99.90;;;;;;5050790;28;20024;-76
2023/10/11 10:40:26;;;;;;;14.57;4.72;;;20.30;99.90;;;;;;5052554;28;20022;-75
2023/10/11 10:43:07;;;;;;;18.80;4.95;;;20.30;99.90;;;;;;5052626;28;20032;-75
2023/10/11 10:45:36;;;;;;;9.82;4.22;;;20.30;99.90;;;;;;5040655;28;20385;-75
2023/10/11 10:48:25;;;;;;;14.55;4.68;;;20.40;99.90;;;;;;5052085;28;20025;-76
2023/10/11 10:51:03;;;;;;;10.55;4.70;;;20.30;99.90;;;;;;5051260;28;20486;-75
2023/10/11 10:53:39;;;;;;;12.75;4.72;;;20.30;99.90;;;;;;5051907;28;20021;-75
2023/10/11 10:56:18;;;;;;;15.13;5.00;;;20.30;99.90;;;;;;5052214;28;20029;-75
2023/10/11 10:58:44;;;;;;;18.13;5.40;;;20.20;99.90;;;;;;5050927;28;20559;-75
2023/10/11 11:01:09;;;;;;;13.70;5.22;;;20.20;99.90;;;;;;5052217;28;20021;-75
2023/10/11 11:03:35;;;;;;;17.95;5.57;;;20.20;99.90;;;;;;5051959;28;20017;-75
2023/10/11 11:06:02;;;;;;;17.50;5.57;;;20.20;99.90;;;;;;5052278;28;20543;-75
2023/10/11 11:08:31;;;;;;;15.23;5.20;;;20.10;99.90;;;;;;5051913;28;20053;-76
2023/10/11 11:11:19;;;;;;;19.63;5.88;;;20.10;99.90;;;;;;5051992;28;20108;-75
2023/10/11 11:13:47;;;;;;;19.30;5.50;;;20.10;99.90;;;;;;5051817;28;20033;-75
2023/10/11 11:16:26;;;;;;;15.23;5.20;;;20.10;99.90;;;;;;5051900;28;20017;-75
2023/10/11 11:18:52;;;;;;;15.43;5.20;;;20.20;99.90;;;;;;5052895;28;20025;-75
2023/10/11 11:21:25;;;;;;;15.65;5.10;;;20.30;99.90;;;;;;5051221;28;20021;-75
2023/10/11 11:23:52;;;;;;;15.07;4.85;;;20.30;99.90;;;;;;5052565;28;20029;-75
2023/10/11 11:26:21;;;;;;;17.60;5.28;;;20.30;99.90;;;;;;5052587;28;20013;-75
2023/10/11 11:28:48;;;;;;;19.00;5.30;;;20.30;99.90;;;;;;5051813;28;20331;-75
2023/10/11 11:31:15;;;;;;;13.48;5.65;;;20.40;99.90;;;;;;5051207;28;20104;-75
2023/10/11 11:36:41;;;;;;;24.00;6.13;;;20.40;99.90;;;;;;5050706;28;20467;-75
2023/10/11 11:39:27;;;;;;;13.95;5.50;;;20.30;99.90;;;;;;5051445;28;20049;-75
2023/10/11 11:41:59;;;;;;;14.48;5.53;;;20.30;99.90;;;;;;5045338;28;20017;-75
2023/10/11 11:44:27;;;;;;;16.42;5.18;;;20.30;99.90;;;;;;5051512;28;20035;-75
2023/10/11 11:46:54;;;;;;;11.65;4.90;;;20.40;99.90;;;;;;5049248;28;20044;-75
2023/10/11 11:49:24;;;;;;;18.63;5.38;;;20.40;99.90;;;;;;5051108;28;20013;-75
2023/10/11 11:51:55;;;;;;;19.63;5.07;;;20.40;99.90;;;;;;5051001;28;20059;-76
2023/10/11 11:54:23;;;;;;;16.17;4.85;;;20.40;99.90;;;;;;5051233;28;20029;-75
2023/10/11 11:56:54;;;;;;;14.60;4.85;;;20.40;99.90;;;;;;5051141;28;20032;-75
2023/10/11 11:59:21;;;;;;;10.40;4.75;;;20.40;99.90;;;;;;5051386;28;20025;-75
2023/10/11 12:01:56;;;;;;;13.27;4.63;;;20.50;99.90;;;;;;5050671;28;20086;-75
2023/10/11 12:04:29;;;;;;;16.58;5.22;;;20.50;99.90;;;;;;5051390;28;20020;-75
2023/10/11 12:07:05;;;;;;;13.27;4.75;;;20.50;99.90;;;;;;5051014;28;20099;-75
2023/10/11 12:09:32;;;;;;;15.70;5.50;;;20.60;99.90;;;;;;5050852;28;20099;-75
2023/10/11 12:12:05;;;;;;;13.70;5.22;;;20.60;99.90;;;;;;5050714;28;20032;-75
2023/10/11 12:14:38;;;;;;;23.30;5.57;;;20.60;99.90;;;;;;5045468;28;20025;-75
2023/10/11 12:17:10;;;;;;;19.55;6.53;;;20.60;99.90;;;;;;5050722;28;20048;-75
2023/10/11 12:19:37;;;;;;;21.02;6.30;;;20.60;99.90;;;;;;5050414;28;20025;-75
2023/10/11 12:22:03;;;;;;;17.08;7.10;;;20.60;99.90;;;;;;5050461;28;20473;-75
2023/10/11 12:24:29;;;;;;;25.35;7.45;;;20.60;99.90;;;;;;5050173;28;20496;-75
2023/10/11 12:26:58;;;;;;;24.60;7.18;;;20.50;99.90;;;;;;5050493;28;20017;-75
2023/10/11 12:29:26;;;;;;;26.30;8.35;;;20.50;99.90;;;;;;5050630;28;20501;-75
2023/10/11 12:31:52;;;;;;;21.10;7.43;;;20.50;99.90;;;;;;5050369;28;20025;-76
2023/10/11 12:34:24;;;;;;;22.67;7.22;;;20.60;99.90;;;;;;5049966;28;20084;-76
2023/10/11 12:36:53;;;;;;;27.85;8.15;;;20.60;99.90;;;;;;5040357;28;20058;-76
2023/10/11 12:39:24;;;;;;;24.20;7.82;;;20.60;99.90;;;;;;5050131;28;20040;-76
2023/10/11 12:41:56;;;;;;;23.95;7.90;;;20.70;99.90;;;;;;5050015;28;20020;-75
2023/10/11 12:44:24;;;;;;;22.20;8.30;;;20.70;99.90;;;;;;5049863;28;20028;-76
2023/10/11 12:46:51;;;;;;;23.40;8.25;;;20.70;99.90;;;;;;5049292;28;20029;-76
2023/10/11 12:49:17;;;;;;;22.20;7.43;;;20.70;99.90;;;;;;5049773;28;20028;-75
2023/10/11 12:51:45;;;;;;;22.88;8.23;;;20.70;99.90;;;;;;5049406;28;20127;-75
2023/10/11 12:54:15;;;;;;;26.10;8.23;;;20.60;99.90;;;;;;5037140;28;20366;-75
2023/10/11 12:56:42;;;;;;;21.90;7.97;;;20.60;99.90;;;;;;5049995;28;20147;-75
2023/10/11 12:59:15;;;;;;;25.80;8.13;;;20.50;99.90;;;;;;5051316;28;20025;-75
2023/10/11 13:01:55;;;;;;;24.50;8.65;;;20.50;99.90;;;;;;5051631;28;20037;-76
2023/10/11 13:04:30;;;;;;;25.83;8.52;;;20.50;99.90;;;;;;5042514;28;20462;-75
2023/10/11 13:06:59;;;;;;;20.88;7.55;;;20.50;99.90;;;;;;5050081;28;20017;-75
2023/10/11 13:09:27;;;;;;;32.35;9.65;;;20.50;99.90;;;;;;5043511;28;20017;-75
2023/10/11 13:11:56;;;;;;;27.95;8.40;;;20.40;99.90;;;;;;5050228;28;20076;-75
2023/10/11 13:14:22;;;;;;;26.13;8.75;;;20.40;99.90;;;;;;5050816;28;20025;-76
2023/10/11 13:16:53;;;;;;;18.98;9.05;;;20.30;99.90;;;;;;5051236;28;20473;-75
2023/10/11 13:19:20;;;;;;;31.25;10.48;;;20.30;99.90;;;;;;5050870;28;20025;-75
2023/10/11 13:21:50;;;;;;;28.20;10.10;;;20.20;99.90;;;;;;5049746;28;20124;-75
2023/10/11 13:24:24;;;;;;;30.08;10.93;;;20.10;99.90;;;;;;5049098;28;20128;-75
2023/10/11 13:26:51;;;;;;;28.77;11.55;;;20.10;99.90;;;;;;5048510;28;20050;-75
2023/10/11 13:29:18;;;;;;;26.73;10.65;;;20.10;99.90;;;;;;5043269;28;20040;-75
2023/10/11 13:31:48;;;;;;;25.55;11.07;;;20.00;99.90;;;;;;5043504;28;20029;-75
2023/10/11 13:34:14;;;;;;;28.73;12.15;;;20.00;99.90;;;;;;5050257;28;20367;-75
2023/10/11 13:36:41;;;;;;;31.05;12.40;;;20.00;99.90;;;;;;5047696;28;20026;-75
2023/10/11 13:39:25;;;;;;;32.22;13.07;;;20.00;99.90;;;;;;5034691;28;20022;-75
2023/10/11 13:41:54;;;;;;;25.90;11.90;;;20.00;99.90;;;;;;5048986;28;20029;-75
2023/10/11 13:44:24;;;;;;;32.58;13.95;;;19.90;99.90;;;;;;5043687;28;20025;-75
2023/10/11 13:46:56;;;;;;;28.70;13.48;;;19.90;99.90;;;;;;5039323;28;20520;-75
2023/10/11 13:49:26;;;;;;;32.88;14.75;;;19.90;99.90;;;;;;5051510;28;20009;-75
2023/10/11 13:51:53;;;;;;;38.08;14.48;;;19.90;99.90;;;;;;5052607;28;20508;-75
2023/10/11 13:54:31;;;;;;;37.15;14.90;;;19.90;99.90;;;;;;5046824;28;20020;-75
2023/10/11 13:57:06;;;;;;;38.50;15.88;;;20.00;99.90;;;;;;5044317;28;20060;-75
2023/10/11 13:59:37;;;;;;;;;;;20.00;99.90;;;;;;5053771;28;20056;-75
2023/10/11 14:02:32;;;;;;;36.75;16.58;;;20.00;99.90;;;;;;5052753;28;19935;-75
2023/10/11 14:04:55;;;;;;;32.05;15.65;;;20.10;99.90;;;;;;5052461;28;20389;-75